sensor_id;sensor_type;location;lat;lon;timestamp;P1;durP1;ratioP1;P2;durP2;ratioP2
52618;SDS011;38513;53.234;6.568;2022-10-31T00:01:37;43.60;;;24.75;;
52618;SDS011;38513;53.234;6.568;2022-10-31T00:04:04;39.67;;;23.75;;
52618;SDS011;38513;53.234;6.568;2022-10-31T00:06:30;44.70;;;24.83;;
52618;SDS011;38513;53.234;6.568;2022-10-31T00:08:57;40.05;;;24.60;;
52618;SDS011;38513;53.234;6.568;2022-10-31T00:11:24;45.15;;;25.38;;
52618;SDS011;38513;53.234;6.568;2022-10-31T00:13:50;44.72;;;24.85;;
52618;SDS011;38513;53.234;6.568;2022-10-31T00:16:17;42.63;;;24.92;;
52618;SDS011;38513;53.234;6.568;2022-10-31T00:18:47;45.20;;;25.38;;
52618;SDS011;38513;53.234;6.568;2022-10-31T00:21:25;43.15;;;26.05;;
52618;SDS011;38513;53.234;6.568;2022-10-31T00:23:52;50.92;;;26.55;;
52618;SDS011;38513;53.234;6.568;2022-10-31T00:26:18;46.40;;;26.38;;
52618;SDS011;38513;53.234;6.568;2022-10-31T00:28:44;43.58;;;26.35;;
52618;SDS011;38513;53.234;6.568;2022-10-31T00:31:11;50.97;;;28.60;;
52618;SDS011;38513;53.234;6.568;2022-10-31T00:33:38;46.13;;;27.02;;
52618;SDS011;38513;53.234;6.568;2022-10-31T00:36:05;49.30;;;27.70;;
52618;SDS011;38513;53.234;6.568;2022-10-31T00:38:32;45.63;;;29.67;;
52618;SDS011;38513;53.234;6.568;2022-10-31T00:40:58;48.08;;;28.55;;
52618;SDS011;38513;53.234;6.568;2022-10-31T00:43:24;47.45;;;28.92;;
52618;SDS011;38513;53.234;6.568;2022-10-31T00:45:50;44.42;;;29.00;;
52618;SDS011;38513;53.234;6.568;2022-10-31T00:48:16;46.47;;;29.55;;
52618;SDS011;38513;53.234;6.568;2022-10-31T00:50:42;51.05;;;30.50;;
52618;SDS011;38513;53.234;6.568;2022-10-31T00:53:08;52.65;;;32.03;;
52618;SDS011;38513;53.234;6.568;2022-10-31T00:55:35;50.38;;;31.25;;
52618;SDS011;38513;53.234;6.568;2022-10-31T00:58:01;46.53;;;31.27;;
52618;SDS011;38513;53.234;6.568;2022-10-31T01:00:27;48.00;;;31.05;;
52618;SDS011;38513;53.234;6.568;2022-10-31T01:02:53;49.72;;;32.72;;
52618;SDS011;38513;53.234;6.568;2022-10-31T01:05:19;53.65;;;32.25;;
52618;SDS011;38513;53.234;6.568;2022-10-31T01:07:45;52.55;;;32.65;;
52618;SDS011;38513;53.234;6.568;2022-10-31T01:10:12;52.30;;;33.13;;
52618;SDS011;38513;53.234;6.568;2022-10-31T01:12:42;51.95;;;32.78;;
52618;SDS011;38513;53.234;6.568;2022-10-31T01:15:09;49.20;;;31.93;;
52618;SDS011;38513;53.234;6.568;2022-10-31T01:17:35;52.63;;;31.90;;
52618;SDS011;38513;53.234;6.568;2022-10-31T01:20:02;49.83;;;32.47;;
52618;SDS011;38513;53.234;6.568;2022-10-31T01:22:28;47.67;;;31.23;;
52618;SDS011;38513;53.234;6.568;2022-10-31T01:24:54;50.30;;;30.75;;
52618;SDS011;38513;53.234;6.568;2022-10-31T01:27:20;51.60;;;31.35;;
52618;SDS011;38513;53.234;6.568;2022-10-31T01:29:47;48.72;;;30.73;;
52618;SDS011;38513;53.234;6.568;2022-10-31T01:32:13;48.80;;;29.65;;
52618;SDS011;38513;53.234;6.568;2022-10-31T01:34:39;47.97;;;29.93;;
52618;SDS011;38513;53.234;6.568;2022-10-31T01:37:05;48.35;;;30.15;;
52618;SDS011;38513;53.234;6.568;2022-10-31T01:39:31;46.75;;;29.85;;
52618;SDS011;38513;53.234;6.568;2022-10-31T01:41:57;48.27;;;29.47;;
52618;SDS011;38513;53.234;6.568;2022-10-31T01:47:05;47.78;;;28.48;;
52618;SDS011;38513;53.234;6.568;2022-10-31T01:49:46;45.28;;;28.45;;
52618;SDS011;38513;53.234;6.568;2022-10-31T01:52:21;46.95;;;29.05;;
52618;SDS011;38513;53.234;6.568;2022-10-31T01:55:07;48.00;;;28.15;;
52618;SDS011;38513;53.234;6.568;2022-10-31T01:57:34;49.30;;;28.95;;
52618;SDS011;38513;53.234;6.568;2022-10-31T02:00:03;42.67;;;26.90;;
52618;SDS011;38513;53.234;6.568;2022-10-31T02:02:30;42.80;;;27.67;;
52618;SDS011;38513;53.234;6.568;2022-10-31T02:04:56;39.83;;;26.67;;
52618;SDS011;38513;53.234;6.568;2022-10-31T02:07:28;43.80;;;26.90;;
52618;SDS011;38513;53.234;6.568;2022-10-31T02:09:57;44.20;;;26.65;;
52618;SDS011;38513;53.234;6.568;2022-10-31T02:12:23;43.55;;;26.85;;
52618;SDS011;38513;53.234;6.568;2022-10-31T02:14:50;40.90;;;26.20;;
52618;SDS011;38513;53.234;6.568;2022-10-31T02:17:16;43.22;;;26.30;;
52618;SDS011;38513;53.234;6.568;2022-10-31T02:22:14;46.73;;;27.37;;
52618;SDS011;38513;53.234;6.568;2022-10-31T02:33:17;43.35;;;27.50;;
52618;SDS011;38513;53.234;6.568;2022-10-31T02:35:50;44.10;;;27.08;;
52618;SDS011;38513;53.234;6.568;2022-10-31T02:38:24;45.20;;;27.83;;
52618;SDS011;38513;53.234;6.568;2022-10-31T02:47:00;43.58;;;27.55;;
52618;SDS011;38513;53.234;6.568;2022-10-31T02:49:38;44.75;;;28.52;;
52618;SDS011;38513;53.234;6.568;2022-10-31T02:52:23;46.65;;;28.60;;
52618;SDS011;38513;53.234;6.568;2022-10-31T02:54:50;46.30;;;28.45;;
52618;SDS011;38513;53.234;6.568;2022-10-31T02:57:17;45.40;;;28.73;;
52618;SDS011;38513;53.234;6.568;2022-10-31T02:59:47;46.17;;;28.67;;
52618;SDS011;38513;53.234;6.568;2022-10-31T03:05:08;45.67;;;29.15;;
52618;SDS011;38513;53.234;6.568;2022-10-31T03:07:40;45.63;;;29.65;;
52618;SDS011;38513;53.234;6.568;2022-10-31T03:12:44;47.83;;;29.23;;
52618;SDS011;38513;53.234;6.568;2022-10-31T03:17:57;45.08;;;28.23;;
52618;SDS011;38513;53.234;6.568;2022-10-31T03:20:29;45.85;;;29.38;;
52618;SDS011;38513;53.234;6.568;2022-10-31T03:22:55;46.30;;;28.95;;
52618;SDS011;38513;53.234;6.568;2022-10-31T03:25:22;45.65;;;29.10;;
52618;SDS011;38513;53.234;6.568;2022-10-31T03:27:48;47.33;;;29.45;;
52618;SDS011;38513;53.234;6.568;2022-10-31T03:30:15;42.78;;;28.25;;
52618;SDS011;38513;53.234;6.568;2022-10-31T03:32:47;46.85;;;28.20;;
52618;SDS011;38513;53.234;6.568;2022-10-31T03:35:15;42.25;;;28.70;;
52618;SDS011;38513;53.234;6.568;2022-10-31T03:37:44;43.60;;;29.38;;
52618;SDS011;38513;53.234;6.568;2022-10-31T03:40:12;46.87;;;28.63;;
52618;SDS011;38513;53.234;6.568;2022-10-31T03:42:41;48.17;;;28.52;;
52618;SDS011;38513;53.234;6.568;2022-10-31T03:45:10;43.03;;;28.02;;
52618;SDS011;38513;53.234;6.568;2022-10-31T03:47:38;44.25;;;28.30;;
52618;SDS011;38513;53.234;6.568;2022-10-31T03:50:05;45.65;;;28.52;;
52618;SDS011;38513;53.234;6.568;2022-10-31T03:52:45;42.22;;;26.85;;
52618;SDS011;38513;53.234;6.568;2022-10-31T03:55:17;42.67;;;27.73;;
52618;SDS011;38513;53.234;6.568;2022-10-31T03:57:45;41.55;;;27.17;;
52618;SDS011;38513;53.234;6.568;2022-10-31T04:00:14;40.92;;;27.88;;
52618;SDS011;38513;53.234;6.568;2022-10-31T04:02:42;42.30;;;27.70;;
52618;SDS011;38513;53.234;6.568;2022-10-31T04:05:11;42.55;;;27.05;;
52618;SDS011;38513;53.234;6.568;2022-10-31T04:07:39;41.80;;;26.98;;
52618;SDS011;38513;53.234;6.568;2022-10-31T04:10:07;41.63;;;26.23;;
52618;SDS011;38513;53.234;6.568;2022-10-31T04:12:35;41.38;;;27.25;;
52618;SDS011;38513;53.234;6.568;2022-10-31T04:15:02;43.55;;;27.25;;
52618;SDS011;38513;53.234;6.568;2022-10-31T04:17:29;41.72;;;27.13;;
52618;SDS011;38513;53.234;6.568;2022-10-31T04:19:58;42.88;;;26.35;;
52618;SDS011;38513;53.234;6.568;2022-10-31T04:22:25;39.60;;;27.02;;
52618;SDS011;38513;53.234;6.568;2022-10-31T04:24:51;41.25;;;27.02;;
52618;SDS011;38513;53.234;6.568;2022-10-31T04:27:17;41.33;;;26.92;;
52618;SDS011;38513;53.234;6.568;2022-10-31T04:29:43;43.35;;;26.90;;
52618;SDS011;38513;53.234;6.568;2022-10-31T04:32:09;37.38;;;25.77;;
52618;SDS011;38513;53.234;6.568;2022-10-31T04:34:35;43.88;;;26.48;;
52618;SDS011;38513;53.234;6.568;2022-10-31T04:37:01;40.65;;;27.50;;
52618;SDS011;38513;53.234;6.568;2022-10-31T04:39:27;44.08;;;26.88;;
52618;SDS011;38513;53.234;6.568;2022-10-31T04:41:53;41.50;;;26.77;;
52618;SDS011;38513;53.234;6.568;2022-10-31T04:44:19;41.83;;;27.13;;
52618;SDS011;38513;53.234;6.568;2022-10-31T04:46:46;44.47;;;28.15;;
52618;SDS011;38513;53.234;6.568;2022-10-31T04:49:12;40.55;;;26.10;;
52618;SDS011;38513;53.234;6.568;2022-10-31T04:51:41;41.58;;;26.95;;
52618;SDS011;38513;53.234;6.568;2022-10-31T04:54:07;45.10;;;27.42;;
52618;SDS011;38513;53.234;6.568;2022-10-31T04:56:33;41.30;;;27.48;;
52618;SDS011;38513;53.234;6.568;2022-10-31T04:59:05;46.42;;;28.38;;
52618;SDS011;38513;53.234;6.568;2022-10-31T05:01:31;40.97;;;27.73;;
52618;SDS011;38513;53.234;6.568;2022-10-31T05:03:57;42.03;;;27.25;;
52618;SDS011;38513;53.234;6.568;2022-10-31T05:06:23;45.58;;;28.00;;
52618;SDS011;38513;53.234;6.568;2022-10-31T05:08:49;40.13;;;27.80;;
52618;SDS011;38513;53.234;6.568;2022-10-31T05:11:15;46.72;;;29.38;;
52618;SDS011;38513;53.234;6.568;2022-10-31T05:13:41;43.47;;;29.02;;
52618;SDS011;38513;53.234;6.568;2022-10-31T05:16:07;42.00;;;28.30;;
52618;SDS011;38513;53.234;6.568;2022-10-31T05:18:33;41.33;;;28.38;;
52618;SDS011;38513;53.234;6.568;2022-10-31T05:21:00;42.45;;;28.52;;
52618;SDS011;38513;53.234;6.568;2022-10-31T05:23:26;44.10;;;28.23;;
52618;SDS011;38513;53.234;6.568;2022-10-31T05:25:52;43.72;;;27.65;;
52618;SDS011;38513;53.234;6.568;2022-10-31T05:28:18;45.63;;;29.55;;
52618;SDS011;38513;53.234;6.568;2022-10-31T05:30:48;42.75;;;28.48;;
52618;SDS011;38513;53.234;6.568;2022-10-31T05:33:15;39.60;;;27.97;;
52618;SDS011;38513;53.234;6.568;2022-10-31T05:35:41;44.72;;;29.60;;
52618;SDS011;38513;53.234;6.568;2022-10-31T05:38:07;44.85;;;28.25;;
52618;SDS011;38513;53.234;6.568;2022-10-31T05:40:33;44.15;;;28.63;;
52618;SDS011;38513;53.234;6.568;2022-10-31T05:42:59;43.38;;;29.75;;
52618;SDS011;38513;53.234;6.568;2022-10-31T05:45:25;45.25;;;28.85;;
52618;SDS011;38513;53.234;6.568;2022-10-31T05:50:17;40.90;;;28.05;;
52618;SDS011;38513;53.234;6.568;2022-10-31T05:52:44;43.45;;;28.38;;
52618;SDS011;38513;53.234;6.568;2022-10-31T05:55:10;43.30;;;29.63;;
52618;SDS011;38513;53.234;6.568;2022-10-31T05:57:36;41.63;;;28.55;;
52618;SDS011;38513;53.234;6.568;2022-10-31T06:00:04;43.45;;;28.55;;
52618;SDS011;38513;53.234;6.568;2022-10-31T06:02:31;44.38;;;30.15;;
52618;SDS011;38513;53.234;6.568;2022-10-31T06:05:00;43.65;;;29.83;;
52618;SDS011;38513;53.234;6.568;2022-10-31T06:07:26;43.00;;;30.07;;
52618;SDS011;38513;53.234;6.568;2022-10-31T06:09:52;43.72;;;29.58;;
52618;SDS011;38513;53.234;6.568;2022-10-31T06:12:18;46.65;;;29.45;;
52618;SDS011;38513;53.234;6.568;2022-10-31T06:14:44;46.05;;;29.65;;
52618;SDS011;38513;53.234;6.568;2022-10-31T06:17:11;44.47;;;29.40;;
52618;SDS011;38513;53.234;6.568;2022-10-31T06:19:37;43.08;;;29.60;;
52618;SDS011;38513;53.234;6.568;2022-10-31T06:22:03;46.03;;;30.33;;
52618;SDS011;38513;53.234;6.568;2022-10-31T06:24:32;41.42;;;28.65;;
52618;SDS011;38513;53.234;6.568;2022-10-31T06:26:58;43.05;;;29.70;;
52618;SDS011;38513;53.234;6.568;2022-10-31T06:29:24;46.13;;;31.73;;
52618;SDS011;38513;53.234;6.568;2022-10-31T06:31:53;45.47;;;30.92;;
52618;SDS011;38513;53.234;6.568;2022-10-31T06:34:19;42.50;;;29.20;;
52618;SDS011;38513;53.234;6.568;2022-10-31T06:36:45;44.23;;;29.50;;
52618;SDS011;38513;53.234;6.568;2022-10-31T06:39:12;42.65;;;28.98;;
52618;SDS011;38513;53.234;6.568;2022-10-31T06:41:38;40.00;;;27.60;;
52618;SDS011;38513;53.234;6.568;2022-10-31T06:44:07;42.20;;;28.33;;
52618;SDS011;38513;53.234;6.568;2022-10-31T06:46:34;39.97;;;27.48;;
52618;SDS011;38513;53.234;6.568;2022-10-31T06:49:00;41.38;;;27.63;;
52618;SDS011;38513;53.234;6.568;2022-10-31T06:51:26;39.53;;;27.15;;
52618;SDS011;38513;53.234;6.568;2022-10-31T06:53:52;39.55;;;28.15;;
52618;SDS011;38513;53.234;6.568;2022-10-31T06:56:18;41.35;;;27.77;;
52618;SDS011;38513;53.234;6.568;2022-10-31T06:58:44;43.63;;;28.45;;
52618;SDS011;38513;53.234;6.568;2022-10-31T07:01:10;42.20;;;27.83;;
52618;SDS011;38513;53.234;6.568;2022-10-31T07:03:36;41.17;;;26.40;;
52618;SDS011;38513;53.234;6.568;2022-10-31T07:06:02;38.83;;;26.75;;
52618;SDS011;38513;53.234;6.568;2022-10-31T07:08:29;41.38;;;26.15;;
52618;SDS011;38513;53.234;6.568;2022-10-31T07:10:55;36.60;;;25.33;;
52618;SDS011;38513;53.234;6.568;2022-10-31T07:13:22;39.80;;;27.50;;
52618;SDS011;38513;53.234;6.568;2022-10-31T07:15:58;38.42;;;27.02;;
52618;SDS011;38513;53.234;6.568;2022-10-31T07:18:24;39.67;;;27.50;;
52618;SDS011;38513;53.234;6.568;2022-10-31T07:20:51;40.63;;;27.80;;
52618;SDS011;38513;53.234;6.568;2022-10-31T07:23:18;43.42;;;28.67;;
52618;SDS011;38513;53.234;6.568;2022-10-31T07:25:44;40.17;;;29.00;;
52618;SDS011;38513;53.234;6.568;2022-10-31T07:28:10;37.65;;;27.08;;
52618;SDS011;38513;53.234;6.568;2022-10-31T07:30:37;41.22;;;29.00;;
52618;SDS011;38513;53.234;6.568;2022-10-31T07:33:04;39.75;;;27.60;;
52618;SDS011;38513;53.234;6.568;2022-10-31T07:35:31;39.95;;;27.90;;
52618;SDS011;38513;53.234;6.568;2022-10-31T07:38:06;40.67;;;28.00;;
52618;SDS011;38513;53.234;6.568;2022-10-31T07:40:33;37.20;;;27.23;;
52618;SDS011;38513;53.234;6.568;2022-10-31T07:43:00;43.57;;;29.73;;
52618;SDS011;38513;53.234;6.568;2022-10-31T07:45:26;44.10;;;30.70;;
52618;SDS011;38513;53.234;6.568;2022-10-31T07:47:52;44.78;;;31.13;;
52618;SDS011;38513;53.234;6.568;2022-10-31T07:52:44;43.13;;;29.73;;
52618;SDS011;38513;53.234;6.568;2022-10-31T07:55:11;44.00;;;30.08;;
52618;SDS011;38513;53.234;6.568;2022-10-31T07:57:37;41.03;;;29.83;;
52618;SDS011;38513;53.234;6.568;2022-10-31T08:00:04;43.33;;;30.30;;
52618;SDS011;38513;53.234;6.568;2022-10-31T08:02:30;42.35;;;30.00;;
52618;SDS011;38513;53.234;6.568;2022-10-31T08:04:57;43.75;;;30.92;;
52618;SDS011;38513;53.234;6.568;2022-10-31T08:07:24;47.30;;;31.65;;
52618;SDS011;38513;53.234;6.568;2022-10-31T08:09:51;45.85;;;32.13;;
52618;SDS011;38513;53.234;6.568;2022-10-31T08:12:17;42.20;;;30.38;;
52618;SDS011;38513;53.234;6.568;2022-10-31T08:14:44;40.97;;;29.60;;
52618;SDS011;38513;53.234;6.568;2022-10-31T08:17:10;39.35;;;29.95;;
52618;SDS011;38513;53.234;6.568;2022-10-31T08:19:37;43.35;;;30.15;;
52618;SDS011;38513;53.234;6.568;2022-10-31T08:22:03;39.67;;;28.50;;
52618;SDS011;38513;53.234;6.568;2022-10-31T08:24:33;37.93;;;29.40;;
52618;SDS011;38513;53.234;6.568;2022-10-31T08:26:59;39.30;;;28.17;;
52618;SDS011;38513;53.234;6.568;2022-10-31T08:29:25;37.55;;;27.88;;
52618;SDS011;38513;53.234;6.568;2022-10-31T08:31:52;36.13;;;27.60;;
52618;SDS011;38513;53.234;6.568;2022-10-31T08:34:18;37.22;;;27.25;;
52618;SDS011;38513;53.234;6.568;2022-10-31T08:36:59;35.80;;;27.55;;
52618;SDS011;38513;53.234;6.568;2022-10-31T08:39:25;35.95;;;26.40;;
52618;SDS011;38513;53.234;6.568;2022-10-31T08:41:52;36.28;;;26.80;;
52618;SDS011;38513;53.234;6.568;2022-10-31T08:44:21;36.03;;;26.77;;
52618;SDS011;38513;53.234;6.568;2022-10-31T08:46:48;35.25;;;25.85;;
52618;SDS011;38513;53.234;6.568;2022-10-31T08:49:14;35.28;;;26.13;;
52618;SDS011;38513;53.234;6.568;2022-10-31T08:51:40;34.78;;;25.98;;
52618;SDS011;38513;53.234;6.568;2022-10-31T08:54:06;35.30;;;25.90;;
52618;SDS011;38513;53.234;6.568;2022-10-31T09:03:13;32.85;;;24.65;;
52618;SDS011;38513;53.234;6.568;2022-10-31T09:05:40;32.45;;;24.45;;
52618;SDS011;38513;53.234;6.568;2022-10-31T09:08:14;31.53;;;22.60;;
52618;SDS011;38513;53.234;6.568;2022-10-31T09:10:40;27.23;;;20.85;;
52618;SDS011;38513;53.234;6.568;2022-10-31T09:13:08;30.88;;;22.73;;
52618;SDS011;38513;53.234;6.568;2022-10-31T09:15:41;30.15;;;21.50;;
52618;SDS011;38513;53.234;6.568;2022-10-31T09:18:08;26.35;;;19.33;;
52618;SDS011;38513;53.234;6.568;2022-10-31T09:23:21;25.57;;;18.33;;
52618;SDS011;38513;53.234;6.568;2022-10-31T09:25:48;28.02;;;19.90;;
52618;SDS011;38513;53.234;6.568;2022-10-31T09:28:17;26.77;;;19.33;;
52618;SDS011;38513;53.234;6.568;2022-10-31T09:30:48;27.37;;;19.73;;
52618;SDS011;38513;53.234;6.568;2022-10-31T09:33:15;25.90;;;19.55;;
52618;SDS011;38513;53.234;6.568;2022-10-31T09:35:41;25.08;;;19.27;;
52618;SDS011;38513;53.234;6.568;2022-10-31T09:38:20;25.85;;;19.33;;
52618;SDS011;38513;53.234;6.568;2022-10-31T09:48:21;26.95;;;21.55;;
52618;SDS011;38513;53.234;6.568;2022-10-31T09:50:51;27.67;;;21.77;;
52618;SDS011;38513;53.234;6.568;2022-10-31T09:56:42;27.42;;;21.70;;
52618;SDS011;38513;53.234;6.568;2022-10-31T09:59:14;28.08;;;20.95;;
52618;SDS011;38513;53.234;6.568;2022-10-31T10:01:49;24.60;;;20.77;;
52618;SDS011;38513;53.234;6.568;2022-10-31T10:17:11;23.63;;;18.08;;
52618;SDS011;38513;53.234;6.568;2022-10-31T10:32:52;16.73;;;11.93;;
52618;SDS011;38513;53.234;6.568;2022-10-31T10:37:45;14.33;;;10.03;;
52618;SDS011;38513;53.234;6.568;2022-10-31T10:40:19;15.07;;;9.90;;
52618;SDS011;38513;53.234;6.568;2022-10-31T10:45:41;14.38;;;10.55;;
52618;SDS011;38513;53.234;6.568;2022-10-31T10:48:37;14.27;;;10.27;;
52618;SDS011;38513;53.234;6.568;2022-10-31T10:51:05;13.45;;;9.70;;
52618;SDS011;38513;53.234;6.568;2022-10-31T10:53:47;15.25;;;10.75;;
52618;SDS011;38513;53.234;6.568;2022-10-31T10:59:11;14.97;;;10.30;;
52618;SDS011;38513;53.234;6.568;2022-10-31T11:01:39;14.73;;;10.63;;
52618;SDS011;38513;53.234;6.568;2022-10-31T11:04:19;15.48;;;10.50;;
52618;SDS011;38513;53.234;6.568;2022-10-31T11:06:56;14.90;;;11.05;;
52618;SDS011;38513;53.234;6.568;2022-10-31T11:09:22;14.60;;;10.93;;
52618;SDS011;38513;53.234;6.568;2022-10-31T11:11:48;15.57;;;11.13;;
52618;SDS011;38513;53.234;6.568;2022-10-31T11:14:15;14.18;;;10.80;;
52618;SDS011;38513;53.234;6.568;2022-10-31T11:16:45;15.02;;;11.00;;
52618;SDS011;38513;53.234;6.568;2022-10-31T11:19:17;13.30;;;10.50;;
52618;SDS011;38513;53.234;6.568;2022-10-31T11:21:45;13.75;;;10.20;;
52618;SDS011;38513;53.234;6.568;2022-10-31T11:24:13;14.10;;;10.27;;
52618;SDS011;38513;53.234;6.568;2022-10-31T11:26:41;15.35;;;11.45;;
52618;SDS011;38513;53.234;6.568;2022-10-31T11:31:40;15.63;;;10.23;;
52618;SDS011;38513;53.234;6.568;2022-10-31T11:34:11;14.05;;;9.50;;
52618;SDS011;38513;53.234;6.568;2022-10-31T11:36:38;14.65;;;9.60;;
52618;SDS011;38513;53.234;6.568;2022-10-31T11:39:13;14.00;;;9.95;;
52618;SDS011;38513;53.234;6.568;2022-10-31T11:41:41;15.77;;;10.23;;
52618;SDS011;38513;53.234;6.568;2022-10-31T11:44:12;22.77;;;17.77;;
52618;SDS011;38513;53.234;6.568;2022-10-31T11:46:46;17.10;;;11.50;;
52618;SDS011;38513;53.234;6.568;2022-10-31T11:49:15;16.50;;;9.73;;
52618;SDS011;38513;53.234;6.568;2022-10-31T11:51:42;14.07;;;8.77;;
52618;SDS011;38513;53.234;6.568;2022-10-31T11:54:22;12.38;;;7.68;;
52618;SDS011;38513;53.234;6.568;2022-10-31T11:56:49;12.80;;;7.55;;
52618;SDS011;38513;53.234;6.568;2022-10-31T12:01:52;13.38;;;8.10;;
52618;SDS011;38513;53.234;6.568;2022-10-31T12:04:20;13.13;;;8.10;;
52618;SDS011;38513;53.234;6.568;2022-10-31T12:06:48;12.07;;;7.83;;
52618;SDS011;38513;53.234;6.568;2022-10-31T12:14:41;13.35;;;8.75;;
52618;SDS011;38513;53.234;6.568;2022-10-31T12:17:05;14.38;;;8.90;;
52618;SDS011;38513;53.234;6.568;2022-10-31T12:29:36;14.85;;;9.70;;
52618;SDS011;38513;53.234;6.568;2022-10-31T12:32:12;14.90;;;9.97;;
52618;SDS011;38513;53.234;6.568;2022-10-31T12:37:15;15.45;;;8.35;;
52618;SDS011;38513;53.234;6.568;2022-10-31T12:47:34;16.30;;;9.05;;
52618;SDS011;38513;53.234;6.568;2022-10-31T12:50:12;13.38;;;7.47;;
52618;SDS011;38513;53.234;6.568;2022-10-31T12:52:49;13.60;;;7.03;;
52618;SDS011;38513;53.234;6.568;2022-10-31T13:00:50;12.13;;;6.32;;
52618;SDS011;38513;53.234;6.568;2022-10-31T13:03:23;11.90;;;6.20;;
52618;SDS011;38513;53.234;6.568;2022-10-31T13:05:51;13.52;;;6.10;;
52618;SDS011;38513;53.234;6.568;2022-10-31T13:08:25;13.30;;;6.45;;
52618;SDS011;38513;53.234;6.568;2022-10-31T13:10:53;12.85;;;6.05;;
52618;SDS011;38513;53.234;6.568;2022-10-31T13:13:26;13.63;;;7.10;;
52618;SDS011;38513;53.234;6.568;2022-10-31T13:15:55;18.00;;;7.22;;
52618;SDS011;38513;53.234;6.568;2022-10-31T13:18:33;18.55;;;7.00;;
52618;SDS011;38513;53.234;6.568;2022-10-31T13:21:02;13.48;;;6.75;;
52618;SDS011;38513;53.234;6.568;2022-10-31T13:23:31;16.08;;;8.10;;
52618;SDS011;38513;53.234;6.568;2022-10-31T13:25:58;17.42;;;8.85;;
52618;SDS011;38513;53.234;6.568;2022-10-31T13:31:07;16.02;;;7.70;;
52618;SDS011;38513;53.234;6.568;2022-10-31T13:33:45;14.15;;;6.90;;
52618;SDS011;38513;53.234;6.568;2022-10-31T13:36:21;14.27;;;5.90;;
52618;SDS011;38513;53.234;6.568;2022-10-31T13:38:54;13.32;;;5.78;;
52618;SDS011;38513;53.234;6.568;2022-10-31T13:44:01;12.07;;;5.28;;
52618;SDS011;38513;53.234;6.568;2022-10-31T13:48:57;16.75;;;5.20;;
52618;SDS011;38513;53.234;6.568;2022-10-31T13:51:33;14.32;;;4.95;;
52618;SDS011;38513;53.234;6.568;2022-10-31T13:54:01;12.23;;;4.40;;
52618;SDS011;38513;53.234;6.568;2022-10-31T13:56:34;11.93;;;4.38;;
52618;SDS011;38513;53.234;6.568;2022-10-31T13:59:14;14.30;;;5.55;;
52618;SDS011;38513;53.234;6.568;2022-10-31T14:01:57;14.23;;;5.30;;
52618;SDS011;38513;53.234;6.568;2022-10-31T14:04:28;11.93;;;4.80;;
52618;SDS011;38513;53.234;6.568;2022-10-31T14:07:16;12.55;;;5.80;;
52618;SDS011;38513;53.234;6.568;2022-10-31T14:12:40;15.98;;;6.30;;
52618;SDS011;38513;53.234;6.568;2022-10-31T14:22:41;16.23;;;7.38;;
52618;SDS011;38513;53.234;6.568;2022-10-31T14:28:30;14.75;;;6.90;;
52618;SDS011;38513;53.234;6.568;2022-10-31T14:30:58;17.02;;;7.55;;
52618;SDS011;38513;53.234;6.568;2022-10-31T14:33:25;14.57;;;6.60;;
52618;SDS011;38513;53.234;6.568;2022-10-31T14:36:09;14.40;;;6.95;;
52618;SDS011;38513;53.234;6.568;2022-10-31T14:49:15;15.23;;;7.00;;
52618;SDS011;38513;53.234;6.568;2022-10-31T14:51:44;13.68;;;6.90;;
52618;SDS011;38513;53.234;6.568;2022-10-31T14:54:13;16.20;;;7.10;;
52618;SDS011;38513;53.234;6.568;2022-10-31T14:56:48;15.03;;;6.97;;
52618;SDS011;38513;53.234;6.568;2022-10-31T14:59:17;15.10;;;6.70;;
52618;SDS011;38513;53.234;6.568;2022-10-31T15:01:51;15.35;;;7.05;;
52618;SDS011;38513;53.234;6.568;2022-10-31T15:04:20;15.63;;;6.97;;
52618;SDS011;38513;53.234;6.568;2022-10-31T15:06:49;15.27;;;6.28;;
52618;SDS011;38513;53.234;6.568;2022-10-31T15:09:29;15.33;;;6.97;;
52618;SDS011;38513;53.234;6.568;2022-10-31T15:11:55;15.02;;;6.80;;
52618;SDS011;38513;53.234;6.568;2022-10-31T15:14:25;14.15;;;6.57;;
52618;SDS011;38513;53.234;6.568;2022-10-31T15:16:51;15.38;;;7.03;;
52618;SDS011;38513;53.234;6.568;2022-10-31T15:19:24;15.02;;;7.20;;
52618;SDS011;38513;53.234;6.568;2022-10-31T15:22:03;15.02;;;7.25;;
52618;SDS011;38513;53.234;6.568;2022-10-31T15:24:32;16.77;;;7.75;;
52618;SDS011;38513;53.234;6.568;2022-10-31T15:26:59;16.13;;;7.75;;
52618;SDS011;38513;53.234;6.568;2022-10-31T15:29:26;18.33;;;8.93;;
52618;SDS011;38513;53.234;6.568;2022-10-31T15:31:55;17.25;;;7.97;;
52618;SDS011;38513;53.234;6.568;2022-10-31T15:34:22;20.30;;;9.07;;
52618;SDS011;38513;53.234;6.568;2022-10-31T15:36:50;16.80;;;8.60;;
52618;SDS011;38513;53.234;6.568;2022-10-31T15:39:17;17.50;;;9.18;;
52618;SDS011;38513;53.234;6.568;2022-10-31T15:41:51;18.23;;;10.13;;
52618;SDS011;38513;53.234;6.568;2022-10-31T15:46:44;17.33;;;10.70;;
52618;SDS011;38513;53.234;6.568;2022-10-31T15:51:52;17.50;;;10.80;;
52618;SDS011;38513;53.234;6.568;2022-10-31T15:54:18;19.23;;;11.57;;
52618;SDS011;38513;53.234;6.568;2022-10-31T15:56:44;18.38;;;11.60;;
52618;SDS011;38513;53.234;6.568;2022-10-31T15:59:11;18.90;;;11.45;;
52618;SDS011;38513;53.234;6.568;2022-10-31T16:01:40;19.67;;;11.70;;
52618;SDS011;38513;53.234;6.568;2022-10-31T16:06:41;17.65;;;11.00;;
52618;SDS011;38513;53.234;6.568;2022-10-31T16:09:23;21.48;;;12.25;;
52618;SDS011;38513;53.234;6.568;2022-10-31T16:11:49;18.23;;;11.70;;
52618;SDS011;38513;53.234;6.568;2022-10-31T16:14:17;22.50;;;12.27;;
52618;SDS011;38513;53.234;6.568;2022-10-31T16:16:54;22.13;;;12.95;;
52618;SDS011;38513;53.234;6.568;2022-10-31T16:19:22;23.50;;;12.82;;
52618;SDS011;38513;53.234;6.568;2022-10-31T16:22:11;21.70;;;11.90;;
52618;SDS011;38513;53.234;6.568;2022-10-31T16:24:47;19.93;;;12.00;;
52618;SDS011;38513;53.234;6.568;2022-10-31T16:27:25;18.58;;;12.10;;
52618;SDS011;38513;53.234;6.568;2022-10-31T16:29:54;20.40;;;11.70;;
52618;SDS011;38513;53.234;6.568;2022-10-31T16:32:25;18.05;;;11.48;;
52618;SDS011;38513;53.234;6.568;2022-10-31T16:37:42;16.35;;;9.95;;
52618;SDS011;38513;53.234;6.568;2022-10-31T16:40:14;16.30;;;10.10;;
52618;SDS011;38513;53.234;6.568;2022-10-31T16:42:48;19.05;;;10.05;;
52618;SDS011;38513;53.234;6.568;2022-10-31T16:45:17;16.75;;;9.63;;
52618;SDS011;38513;53.234;6.568;2022-10-31T16:47:43;15.60;;;9.43;;
52618;SDS011;38513;53.234;6.568;2022-10-31T16:50:18;16.10;;;9.05;;
52618;SDS011;38513;53.234;6.568;2022-10-31T16:52:45;14.52;;;9.40;;
52618;SDS011;38513;53.234;6.568;2022-10-31T16:55:16;16.90;;;9.70;;
52618;SDS011;38513;53.234;6.568;2022-10-31T16:57:51;16.33;;;9.50;;
52618;SDS011;38513;53.234;6.568;2022-10-31T17:00:21;16.30;;;9.07;;
52618;SDS011;38513;53.234;6.568;2022-10-31T17:02:48;16.30;;;9.77;;
52618;SDS011;38513;53.234;6.568;2022-10-31T17:05:16;15.93;;;10.07;;
52618;SDS011;38513;53.234;6.568;2022-10-31T17:07:42;16.00;;;9.52;;
52618;SDS011;38513;53.234;6.568;2022-10-31T17:10:09;15.55;;;9.40;;
52618;SDS011;38513;53.234;6.568;2022-10-31T17:12:36;15.35;;;10.10;;
52618;SDS011;38513;53.234;6.568;2022-10-31T17:15:02;16.85;;;10.73;;
52618;SDS011;38513;53.234;6.568;2022-10-31T17:17:28;17.00;;;10.63;;
52618;SDS011;38513;53.234;6.568;2022-10-31T17:19:54;16.70;;;11.68;;